Etusivu
METAR-TAF:

METAR-TAF

Lentoasemat :

Sanikiluaqin lentoasema

Sanikiluaq, Nunavut, Kanada

Leveyspiiri: 56-32N, Pituuspiiri: 079-15W, korkeus merenpinnasta: 32 m

Tämänhetkinen sää

Tämä raportti tehtiin 5 tuntia ja 22 minuuttia sitten, kello 06.00 UTC
Tuuli 8 kn pohjoisesta
Lämpötila -27°C
Kosteus 75%
Ilmanpaine 1031 hPa
Näkyvyys: 24.1 km
selkeää

METAR: CYSK 260600Z 36008KT 15SM SKC M27/M30 A3046 RMK SN CVR/NIL LAST OBS/NEXT 261300UTC SLP322

Aika: 06:22 (11:22 UTC)


TAF: puuttuu

Säähavainnot ja -ennusteet yli 4000 lentoasemalta (METAR- ja TAF-raportit).

Käytössä olevat sääasemat on merkitty karttaan keltaisilla ja punaisilla pisteillä.

Aseta hiiri pisteen päälle nähdäksesi sääaseman nimen.

Klikkaa sitten nähdäksesi säähavainnot ja -ennusteet.

Kartan vaihtaminen: klikkaa mustalla rastilla varustettuja vihreitä pisteitä, niin voit zoomata sisään; viivalla varustettua vihreää pistettä, niin voit zoomata ulos tai vihreitä nuolia, niin pääset viereisille kartoille.


METAR-TAF: